Blackfoot, Montana
Current Conditions -  °F | °C
As of 6:56 AM on Sunday 25 Jan 2015 (Local Time) from KCTB Reporting Station
Clear Clear  
Wind Chill: 40°   Ceiling: Unl
Heat Index: 48°   Visibility: 10mi
Dew Point: 37°   Wind: 28mph
Humidity: 66%   Direction: 270°W
Pressure: 29.91"   Gusts: 37mph
Location:  48.5484°N, 112.952°W
Report Text: KCTB 251356Z AUTO 27024G32KT 10SM CLR 09/03 A2991 RMK AO2 PK WND 27038/1314 SLP136 T00890028
Loading
Personal Weather Stations






























Interactive Weather Map New forecast layout! Learn more

10-Day Weather Forecast

Advertisements
Track Severe Weather on mobile